createdAt,value
2022-12-06T00:00:34.560Z,88.15
2022-12-06T00:01:39.906Z,75.47
2022-12-06T00:02:42.739Z,70.30
2022-12-06T00:03:48.222Z,72.05
2022-12-06T00:04:51.057Z,66.90
2022-12-06T00:05:54.813Z,68.93
2022-12-06T00:06:58.645Z,70.63
2022-12-06T00:08:02.553Z,75.38
2022-12-06T00:09:05.388Z,70.53
2022-12-06T00:10:10.082Z,69.15
2022-12-06T00:11:14.182Z,72.20
2022-12-06T00:12:18.040Z,73.63
2022-12-06T00:13:20.749Z,77.38
2022-12-06T00:14:25.038Z,72.88
2022-12-06T00:15:28.069Z,68.60
2022-12-06T00:16:33.695Z,70.30
2022-12-06T00:17:41.552Z,66.90
2022-12-06T00:18:47.552Z,62.25
2022-12-06T00:19:50.312Z,64.18
2022-12-06T00:20:54.103Z,64.70
2022-12-06T00:21:56.790Z,66.97
2022-12-06T00:23:00.679Z,64.47
2022-12-06T00:24:05.209Z,63.03
2022-12-06T00:25:09.589Z,62.40
2022-12-06T00:26:12.922Z,61.60
2022-12-06T00:27:16.690Z,63.13
2022-12-06T00:28:19.591Z,66.32
2022-12-06T00:29:25.001Z,64.90
2022-12-06T00:30:27.699Z,66.30
2022-12-06T00:31:34.707Z,64.15
2022-12-06T00:32:37.531Z,67.30
2022-12-06T00:33:41.242Z,66.22
2022-12-06T00:34:43.900Z,66.78
2022-12-06T00:35:56.921Z,69.50
2022-12-06T00:36:59.688Z,64.80
2022-12-06T00:38:03.572Z,63.25
2022-12-06T00:39:08.646Z,63.25
2022-12-06T00:40:13.200Z,63.72
2022-12-06T00:41:17.780Z,62.80
2022-12-06T00:42:21.629Z,63.33
2022-12-06T00:43:24.410Z,64.65
2022-12-06T00:44:28.209Z,62.53
2022-12-06T00:45:31.023Z,63.42
2022-12-06T00:46:37.171Z,64.43
2022-12-06T00:47:39.969Z,65.25
2022-12-06T00:48:43.906Z,66.10
2022-12-06T00:49:46.839Z,66.03
2022-12-06T00:50:50.966Z,64.90
2022-12-06T00:51:55.512Z,65.07
2022-12-06T00:52:58.379Z,70.15
2022-12-06T00:54:02.575Z,70.13
2022-12-06T00:55:05.949Z,73.90
2022-12-06T00:56:10.342Z,74.32
2022-12-06T00:57:14.156Z,75.72
2022-12-06T00:58:17.844Z,80.72
2022-12-06T00:59:21.709Z,83.50
2022-12-06T01:00:24.520Z,76.40
2022-12-06T01:01:30.301Z,79.18
2022-12-06T01:02:34.579Z,80.22
2022-12-06T01:03:38.525Z,81.57
2022-12-06T01:04:42.420Z,81.03
2022-12-06T01:05:47.810Z,81.45
2022-12-06T01:06:51.766Z,80.10
2022-12-06T01:07:54.685Z,83.30
2022-12-06T01:09:01.837Z,80.90
2022-12-06T01:10:05.291Z,86.38
2022-12-06T01:11:09.525Z,85.82
2022-12-06T01:12:12.195Z,87.72
2022-12-06T01:13:16.005Z,83.55
2022-12-06T01:14:18.735Z,91.68
2022-12-06T01:15:22.475Z,87.63
2022-12-06T01:16:28.528Z,91.82
2022-12-06T01:17:31.213Z,81.82
2022-12-06T01:18:36.904Z,90.18
2022-12-06T01:19:40.185Z,84.15
2022-12-06T01:20:47.042Z,86.88
2022-12-06T01:21:50.824Z,84.03
2022-12-06T01:22:55.042Z,83.35
2022-12-06T01:23:58.105Z,85.60
2022-12-06T01:25:05.530Z,86.75
2022-12-06T01:26:08.615Z,88.13
2022-12-06T01:27:13.949Z,84.75
2022-12-06T01:28:16.679Z,88.60
2022-12-06T01:29:22.155Z,87.30
2022-12-06T01:30:25.910Z,82.93
2022-12-06T01:31:37.161Z,83.10
2022-12-06T01:32:41.393Z,83.25
2022-12-06T01:33:47.910Z,84.50
2022-12-06T01:34:52.911Z,82.35
2022-12-06T01:36:00.061Z,84.10
2022-12-06T01:37:02.991Z,85.35
2022-12-06T01:38:06.781Z,82.55
2022-12-06T01:39:10.971Z,75.75
2022-12-06T01:40:15.631Z,75.55
2022-12-06T01:41:18.855Z,73.30
2022-12-06T01:42:23.263Z,70.53
2022-12-06T01:43:34.632Z,66.05
2022-12-06T01:44:47.463Z,65.32
2022-12-06T01:45:50.882Z,63.45
2022-12-06T01:46:55.473Z,65.03
2022-12-06T01:47:58.341Z,59.90
2022-12-06T01:49:32.590Z,60.65
2022-12-06T01:50:38.249Z,60.40
2022-12-06T01:51:44.170Z,60.42
2022-12-06T01:52:50.317Z,60.72
2022-12-06T01:53:55.073Z,59.58
2022-12-06T01:54:59.069Z,58.78
2022-12-06T01:56:03.204Z,61.42
2022-12-06T01:57:08.112Z,58.75
2022-12-06T01:58:14.631Z,58.22
2022-12-06T01:59:17.815Z,58.67
2022-12-06T02:00:22.084Z,56.75
2022-12-06T02:01:26.186Z,58.28
2022-12-06T02:02:30.521Z,58.45
2022-12-06T02:03:34.380Z,55.45
2022-12-06T02:04:41.387Z,56.67
2022-12-06T02:05:45.783Z,56.83
2022-12-06T02:06:50.486Z,55.42
2022-12-06T02:07:53.619Z,57.03
2022-12-06T02:09:00.300Z,56.35
2022-12-06T02:10:06.893Z,57.35
2022-12-06T02:11:10.459Z,56.50
2022-12-06T02:12:16.553Z,58.92
2022-12-06T02:13:20.218Z,59.67
2022-12-06T02:14:29.258Z,58.30
2022-12-06T02:15:39.581Z,58.80
2022-12-06T02:16:53.991Z,57.13
2022-12-06T02:18:00.366Z,59.13
2022-12-06T02:19:15.977Z,59.75
2022-12-06T02:20:27.123Z,58.78
2022-12-06T02:21:37.563Z,55.47
2022-12-06T02:22:58.119Z,61.83
2022-12-06T02:24:30.403Z,62.88
2022-12-06T02:25:59.714Z,62.92
2022-12-06T02:27:28.711Z,57.60
2022-12-06T02:28:58.982Z,57.85
2022-12-06T02:30:11.151Z,57.83
2022-12-06T02:31:17.828Z,55.90
2022-12-06T02:32:24.100Z,57.33
2022-12-06T02:33:31.776Z,56.25
2022-12-06T02:34:43.169Z,52.47
2022-12-06T02:35:49.260Z,52.15
2022-12-06T02:36:59.010Z,49.47
2022-12-06T02:38:12.847Z,50.65
2022-12-06T02:39:22.812Z,46.70
2022-12-06T02:40:29.712Z,47.95
2022-12-06T02:41:37.614Z,47.67
2022-12-06T02:42:45.321Z,48.45
2022-12-06T02:43:52.700Z,46.67
2022-12-06T02:44:56.773Z,46.53
2022-12-06T02:46:02.605Z,45.90
2022-12-06T02:47:09.141Z,46.15
2022-12-06T02:48:14.458Z,46.03
2022-12-06T02:49:18.283Z,46.55
2022-12-06T02:50:25.989Z,46.40
2022-12-06T02:51:30.092Z,44.08
2022-12-06T02:52:34.011Z,44.65
2022-12-06T02:53:39.263Z,47.35
2022-12-06T02:54:43.469Z,46.40
2022-12-06T02:55:46.375Z,44.70
2022-12-06T02:56:50.156Z,44.88
2022-12-06T02:57:54.900Z,44.60
2022-12-06T02:58:58.682Z,46.63
2022-12-06T03:00:01.881Z,40.78
2022-12-06T03:01:06.493Z,44.00
2022-12-06T03:02:11.622Z,44.08
2022-12-06T03:03:44.178Z,42.38
2022-12-06T03:04:49.792Z,41.10
2022-12-06T03:06:09.659Z,44.28
2022-12-06T03:07:31.773Z,41.95
2022-12-06T03:08:43.873Z,41.25
2022-12-06T03:09:55.792Z,41.20
2022-12-06T03:11:01.408Z,43.03
2022-12-06T03:12:08.587Z,43.75
2022-12-06T03:13:15.932Z,41.83
2022-12-06T03:14:22.813Z,41.75
2022-12-06T03:15:44.156Z,40.15
2022-12-06T03:16:49.081Z,37.63
2022-12-06T03:17:57.933Z,38.70
2022-12-06T03:19:04.963Z,39.35
2022-12-06T03:20:12.725Z,39.05
2022-12-06T03:21:19.273Z,40.15
2022-12-06T03:22:26.693Z,37.13
2022-12-06T03:23:33.104Z,38.17
2022-12-06T03:24:40.009Z,35.85
2022-12-06T03:25:43.241Z,37.05
2022-12-06T03:26:49.073Z,35.88
2022-12-06T03:27:53.290Z,37.80
2022-12-06T03:28:58.610Z,37.33
2022-12-06T03:30:04.161Z,37.03
2022-12-06T03:31:11.617Z,35.55
2022-12-06T03:32:16.470Z,35.47
2022-12-06T03:33:25.494Z,35.88
2022-12-06T03:34:31.655Z,33.33
2022-12-06T03:35:36.229Z,34.22
2022-12-06T03:36:39.553Z,34.17
2022-12-06T03:37:46.300Z,35.38
2022-12-06T03:38:52.785Z,34.85
2022-12-06T03:40:02.028Z,35.10
2022-12-06T03:41:07.471Z,36.85
2022-12-06T03:42:11.881Z,33.97
2022-12-06T03:43:14.771Z,34.22
2022-12-06T03:44:18.626Z,33.08
2022-12-06T03:45:22.465Z,35.60
2022-12-06T03:46:29.118Z,34.80
2022-12-06T03:47:36.692Z,34.95
2022-12-06T03:48:44.333Z,34.47
2022-12-06T03:49:48.239Z,32.75
2022-12-06T03:50:58.488Z,33.42
2022-12-06T03:52:02.481Z,35.17
2022-12-06T03:53:06.242Z,32.35
2022-12-06T03:54:09.542Z,33.50
2022-12-06T03:55:13.334Z,34.03
2022-12-06T03:56:16.208Z,33.08
2022-12-06T03:57:20.141Z,32.88
2022-12-06T03:58:22.841Z,33.40
2022-12-06T03:59:26.595Z,33.30
2022-12-06T04:00:29.292Z,34.17
2022-12-06T04:01:33.118Z,35.97
2022-12-06T04:02:35.962Z,35.50
2022-12-06T04:03:41.426Z,38.17
2022-12-06T04:04:44.181Z,40.38
2022-12-06T04:05:48.026Z,35.80
2022-12-06T04:06:50.663Z,38.90
2022-12-06T04:07:54.476Z,33.55
2022-12-06T04:09:18.051Z,34.00
2022-12-06T04:10:23.150Z,37.47
2022-12-06T04:11:25.902Z,34.38
2022-12-06T04:12:47.561Z,38.20
2022-12-06T04:13:51.298Z,35.08
2022-12-06T04:14:54.082Z,33.67
2022-12-06T04:15:59.118Z,34.88
2022-12-06T04:17:20.793Z,37.10
2022-12-06T04:18:24.302Z,34.30
2022-12-06T04:19:28.461Z,35.47
2022-12-06T04:20:52.952Z,34.55
2022-12-06T04:22:14.633Z,37.03
2022-12-06T04:23:17.697Z,34.38
2022-12-06T04:24:21.211Z,39.78
2022-12-06T04:25:25.261Z,36.10
2022-12-06T04:26:28.953Z,32.88
2022-12-06T04:27:50.062Z,36.25
2022-12-06T04:29:12.191Z,35.50
2022-12-06T04:30:34.070Z,33.78
2022-12-06T04:31:55.405Z,34.67
2022-12-06T04:33:16.422Z,33.60
2022-12-06T04:34:37.681Z,36.35
2022-12-06T04:36:00.373Z,34.70
2022-12-06T04:37:21.771Z,39.42
2022-12-06T04:38:41.441Z,35.80
2022-12-06T04:39:45.341Z,34.78
2022-12-06T04:40:48.531Z,35.70
2022-12-06T04:42:10.131Z,34.53
2022-12-06T04:43:31.251Z,32.45
2022-12-06T04:44:35.057Z,33.22
2022-12-06T04:45:37.871Z,33.08
2022-12-06T04:46:41.645Z,33.55
2022-12-06T04:47:45.474Z,34.70
2022-12-06T04:48:48.220Z,33.83
2022-12-06T04:49:52.085Z,32.78
2022-12-06T04:50:56.238Z,34.17
2022-12-06T04:52:00.043Z,33.20
2022-12-06T04:53:02.744Z,33.03
2022-12-06T04:54:07.492Z,33.20
2022-12-06T04:55:11.509Z,32.20
2022-12-06T04:56:14.331Z,32.28
2022-12-06T04:57:18.692Z,35.30
2022-12-06T04:58:21.694Z,32.72
2022-12-06T04:59:26.467Z,33.20
2022-12-06T05:00:29.926Z,33.38
2022-12-06T05:01:35.304Z,36.17
2022-12-06T05:02:38.089Z,34.08
2022-12-06T05:03:44.401Z,33.78
2022-12-06T05:04:47.290Z,34.92
2022-12-06T05:05:51.064Z,33.42
2022-12-06T05:06:56.414Z,34.10
2022-12-06T05:08:00.586Z,33.70
2022-12-06T05:09:04.384Z,28.40
2022-12-06T05:10:10.014Z,31.80
2022-12-06T05:11:13.092Z,31.30
2022-12-06T05:12:21.511Z,30.83
2022-12-06T05:13:26.178Z,31.15
2022-12-06T05:14:30.821Z,30.60
2022-12-06T05:15:34.121Z,28.00
2022-12-06T05:16:37.899Z,30.35
2022-12-06T05:17:41.145Z,31.15
2022-12-06T05:18:44.923Z,30.08
2022-12-06T05:19:47.670Z,32.15
2022-12-06T05:20:51.644Z,30.05
2022-12-06T05:21:56.852Z,27.80
2022-12-06T05:23:00.952Z,28.20
2022-12-06T05:24:03.618Z,27.65
2022-12-06T05:25:08.310Z,28.25
2022-12-06T05:26:12.864Z,28.15
2022-12-06T05:27:16.792Z,25.52
2022-12-06T05:28:20.312Z,26.05
2022-12-06T05:29:25.521Z,26.23
2022-12-06T05:30:29.583Z,27.75
2022-12-06T05:31:34.433Z,29.02
2022-12-06T05:32:38.671Z,29.95
2022-12-06T05:33:42.514Z,38.80
2022-12-06T05:34:45.662Z,26.55
2022-12-06T05:35:50.401Z,29.65
2022-12-06T05:36:54.137Z,30.33
2022-12-06T05:37:58.942Z,31.42
2022-12-06T05:39:02.711Z,27.25
2022-12-06T05:40:07.469Z,27.60
2022-12-06T05:41:12.225Z,28.80
2022-12-06T05:42:22.132Z,30.25
2022-12-06T05:43:26.432Z,29.90
2022-12-06T05:44:31.603Z,32.78
2022-12-06T05:45:35.687Z,34.25
2022-12-06T05:46:39.552Z,40.90
2022-12-06T05:47:42.220Z,40.70
2022-12-06T05:48:46.251Z,53.35
2022-12-06T05:49:48.911Z,53.20
2022-12-06T05:50:53.950Z,35.92
2022-12-06T05:52:02.495Z,36.42
2022-12-06T05:53:08.116Z,34.33
2022-12-06T05:54:12.012Z,34.90
2022-12-06T05:55:15.086Z,37.28
2022-12-06T05:56:19.150Z,35.70
2022-12-06T05:57:22.434Z,33.53
2022-12-06T05:58:26.652Z,34.25
2022-12-06T05:59:30.603Z,36.08
2022-12-06T06:00:33.303Z,36.47
2022-12-06T06:01:37.143Z,32.28
2022-12-06T06:02:40.171Z,32.42
2022-12-06T06:03:47.465Z,30.60
2022-12-06T06:04:50.839Z,31.27
2022-12-06T06:05:59.166Z,25.77
2022-12-06T06:07:02.160Z,32.75
2022-12-06T06:08:06.386Z,29.85
2022-12-06T06:09:10.540Z,29.80
2022-12-06T06:10:14.734Z,30.38
2022-12-06T06:11:18.480Z,29.35
2022-12-06T06:12:21.200Z,29.85
2022-12-06T06:13:25.237Z,32.63
2022-12-06T06:14:29.082Z,30.48
2022-12-06T06:15:31.783Z,33.65
2022-12-06T06:16:35.572Z,31.52
2022-12-06T06:17:38.828Z,31.58
2022-12-06T06:18:42.600Z,35.13
2022-12-06T06:19:50.012Z,37.53
2022-12-06T06:20:56.801Z,33.33
2022-12-06T06:21:59.537Z,38.85
2022-12-06T06:23:03.376Z,40.92
2022-12-06T06:24:07.956Z,35.25
2022-12-06T06:25:13.233Z,32.00
2022-12-06T06:26:15.983Z,32.90
2022-12-06T06:27:19.930Z,35.53
2022-12-06T06:28:22.611Z,34.42
2022-12-06T06:29:26.351Z,34.63
2022-12-06T06:30:29.101Z,34.33
2022-12-06T06:31:33.038Z,33.03
2022-12-06T06:32:35.924Z,35.03
2022-12-06T06:33:39.833Z,42.10
2022-12-06T06:34:42.481Z,41.45
2022-12-06T06:35:46.240Z,42.67
2022-12-06T06:36:48.961Z,44.45
2022-12-06T06:37:52.821Z,42.70
2022-12-06T06:38:55.614Z,45.28
2022-12-06T06:39:59.918Z,41.25
2022-12-06T06:41:06.109Z,38.90
2022-12-06T06:42:08.918Z,39.17
2022-12-06T06:43:21.773Z,44.97
2022-12-06T06:44:24.584Z,49.15
2022-12-06T06:45:33.505Z,51.13
2022-12-06T06:46:37.252Z,53.30
2022-12-06T06:47:40.557Z,56.53
2022-12-06T06:48:44.332Z,64.25
2022-12-06T06:49:47.001Z,58.58
2022-12-06T06:50:56.652Z,41.65
2022-12-06T06:52:00.919Z,39.50
2022-12-06T06:53:03.583Z,39.30
2022-12-06T06:54:07.494Z,40.85
2022-12-06T06:55:11.330Z,41.05
2022-12-06T06:56:15.459Z,39.22
2022-12-06T06:57:19.770Z,37.28
2022-12-06T06:58:22.787Z,41.95
2022-12-06T06:59:27.061Z,43.38
2022-12-06T07:00:29.811Z,44.60
2022-12-06T07:01:33.766Z,41.30
2022-12-06T07:02:37.596Z,52.58
2022-12-06T07:03:41.548Z,49.47
2022-12-06T07:04:44.975Z,49.08
2022-12-06T07:05:53.096Z,46.42
2022-12-06T07:06:55.890Z,45.88
2022-12-06T07:07:59.659Z,67.80
2022-12-06T07:09:03.421Z,69.70
2022-12-06T07:10:07.710Z,66.97
2022-12-06T07:11:12.753Z,50.45
2022-12-06T07:12:16.903Z,50.75
2022-12-06T07:13:22.567Z,55.97
2022-12-06T07:14:26.360Z,49.60
2022-12-06T07:15:29.004Z,43.38
2022-12-06T07:16:32.938Z,48.25
2022-12-06T07:17:36.410Z,47.25
2022-12-06T07:18:40.293Z,54.55
2022-12-06T07:19:42.925Z,73.60
2022-12-06T07:20:47.026Z,75.30
2022-12-06T07:21:51.050Z,85.75
2022-12-06T07:22:53.762Z,67.75
2022-12-06T07:23:57.660Z,77.60
2022-12-06T07:25:00.539Z,56.65
2022-12-06T07:26:06.416Z,44.22
2022-12-06T07:27:10.239Z,41.22
2022-12-06T07:28:14.468Z,44.30
2022-12-06T07:29:18.319Z,45.65
2022-12-06T07:30:27.151Z,49.33
2022-12-06T07:31:31.951Z,53.45
2022-12-06T07:32:36.596Z,49.92
2022-12-06T07:33:40.843Z,43.78
2022-12-06T07:34:45.005Z,44.13
2022-12-06T07:36:11.367Z,40.15
2022-12-06T07:37:19.185Z,40.40
2022-12-06T07:38:22.017Z,42.58
2022-12-06T07:39:26.920Z,44.85
2022-12-06T07:40:56.316Z,39.47
2022-12-06T07:42:10.760Z,40.00
2022-12-06T07:43:44.193Z,46.92
2022-12-06T07:45:03.541Z,48.10
2022-12-06T07:46:11.338Z,51.95
2022-12-06T07:47:15.439Z,51.45
2022-12-06T07:48:18.301Z,54.60
2022-12-06T07:49:21.982Z,52.33
2022-12-06T07:50:26.080Z,50.20
2022-12-06T07:51:28.739Z,49.25
2022-12-06T07:52:33.946Z,48.58
2022-12-06T07:53:36.635Z,46.60
2022-12-06T07:54:41.731Z,48.00
2022-12-06T07:55:45.500Z,47.25
2022-12-06T07:56:49.413Z,47.63
2022-12-06T07:57:53.061Z,47.85
2022-12-06T07:58:57.170Z,51.72
2022-12-06T08:00:01.263Z,52.50
2022-12-06T08:01:15.598Z,48.75
2022-12-06T08:02:21.226Z,48.60
2022-12-06T08:03:24.955Z,47.38
2022-12-06T08:04:28.244Z,49.53
2022-12-06T08:05:32.001Z,46.25
2022-12-06T08:06:34.982Z,51.88
2022-12-06T08:07:38.948Z,50.90
2022-12-06T08:08:41.815Z,49.50
2022-12-06T08:09:46.083Z,50.33
2022-12-06T08:10:48.996Z,59.83
2022-12-06T08:11:53.181Z,55.05
2022-12-06T08:12:56.046Z,42.85
2022-12-06T08:14:01.376Z,43.83
2022-12-06T08:15:05.775Z,50.40
2022-12-06T08:16:10.438Z,48.28
2022-12-06T08:17:14.621Z,52.58
2022-12-06T08:18:17.323Z,51.67
2022-12-06T08:19:21.263Z,44.92
2022-12-06T08:20:23.890Z,43.22
2022-12-06T08:21:28.700Z,40.60
2022-12-06T08:22:32.900Z,35.45
2022-12-06T08:23:36.516Z,33.55
2022-12-06T08:24:40.402Z,36.92
2022-12-06T08:25:43.177Z,33.38
2022-12-06T08:26:47.098Z,33.45
2022-12-06T08:27:49.894Z,31.75
2022-12-06T08:28:53.687Z,31.08
2022-12-06T08:29:58.088Z,32.13
2022-12-06T08:31:06.293Z,29.67
2022-12-06T08:32:10.165Z,28.40
2022-12-06T08:33:12.942Z,29.80
2022-12-06T08:34:16.830Z,28.75
2022-12-06T08:35:19.494Z,28.67
2022-12-06T08:36:24.624Z,26.70
2022-12-06T08:37:27.243Z,25.77
2022-12-06T08:38:31.071Z,27.58
2022-12-06T08:39:34.905Z,25.45
2022-12-06T08:40:37.671Z,24.77
2022-12-06T08:41:58.466Z,23.10
2022-12-06T08:43:02.373Z,22.25
2022-12-06T08:44:05.538Z,24.75
2022-12-06T08:45:11.230Z,28.90
2022-12-06T08:46:14.003Z,23.27
2022-12-06T08:47:18.263Z,23.23
2022-12-06T08:48:21.574Z,25.40
2022-12-06T08:49:26.596Z,27.15
2022-12-06T08:50:29.256Z,25.15
2022-12-06T08:51:33.864Z,27.40
2022-12-06T08:52:37.606Z,25.30
2022-12-06T08:53:40.657Z,27.73
2022-12-06T08:54:45.188Z,27.63
2022-12-06T08:56:02.046Z,25.65
2022-12-06T08:57:06.470Z,25.23
2022-12-06T08:58:09.342Z,23.35
2022-12-06T08:59:13.417Z,23.60
2022-12-06T09:00:19.753Z,23.48
2022-12-06T09:01:26.372Z,25.00
2022-12-06T09:02:30.200Z,24.85
2022-12-06T09:03:33.973Z,25.27
2022-12-06T09:04:37.862Z,25.98
2022-12-06T09:05:41.652Z,28.30
2022-12-06T09:06:46.810Z,30.02
2022-12-06T09:07:50.887Z,29.77
2022-12-06T09:08:53.641Z,30.00
2022-12-06T09:09:57.678Z,31.48
2022-12-06T09:11:00.482Z,32.40
2022-12-06T09:12:04.364Z,32.67
2022-12-06T09:13:07.159Z,33.97
2022-12-06T09:14:16.404Z,31.05
2022-12-06T09:15:24.962Z,31.80
2022-12-06T09:16:28.784Z,31.98
2022-12-06T09:17:32.688Z,28.40
2022-12-06T09:18:35.722Z,27.83
2022-12-06T09:19:39.922Z,27.92
2022-12-06T09:20:42.913Z,27.98
2022-12-06T09:21:46.826Z,25.23
2022-12-06T09:22:50.637Z,25.35
2022-12-06T09:23:57.228Z,24.90
2022-12-06T09:25:01.211Z,26.20
2022-12-06T09:26:05.000Z,24.15
2022-12-06T09:27:08.790Z,25.65
2022-12-06T09:28:11.991Z,24.90
2022-12-06T09:29:16.388Z,25.48
2022-12-06T09:30:19.134Z,27.20
2022-12-06T09:31:24.758Z,24.88
2022-12-06T09:32:27.506Z,25.15
2022-12-06T09:33:31.283Z,24.25
2022-12-06T09:34:35.060Z,30.95
2022-12-06T09:35:37.814Z,24.55
2022-12-06T09:36:44.700Z,23.70
2022-12-06T09:37:48.723Z,26.13
2022-12-06T09:38:55.727Z,26.00
2022-12-06T09:40:02.528Z,24.63
2022-12-06T09:41:12.213Z,23.33
2022-12-06T09:42:47.944Z,26.33
2022-12-06T09:44:01.689Z,24.90
2022-12-06T09:45:16.161Z,25.33
2022-12-06T09:46:33.147Z,25.23
2022-12-06T09:47:48.252Z,24.30
2022-12-06T09:49:09.993Z,24.02
2022-12-06T09:50:19.904Z,23.25
2022-12-06T09:51:32.670Z,24.73
2022-12-06T09:52:57.052Z,24.25
2022-12-06T09:54:13.743Z,21.92
2022-12-06T09:55:25.775Z,24.38
2022-12-06T09:56:34.565Z,23.15
2022-12-06T09:57:43.257Z,24.38
2022-12-06T09:58:56.787Z,22.00
2022-12-06T10:00:10.981Z,24.23
2022-12-06T10:01:21.683Z,21.33
2022-12-06T10:02:52.502Z,23.90
2022-12-06T10:04:05.201Z,25.73
2022-12-06T10:05:32.089Z,25.83
2022-12-06T10:06:40.534Z,20.90
2022-12-06T10:07:52.201Z,20.27
2022-12-06T10:09:08.220Z,18.80
2022-12-06T10:10:20.970Z,20.25
2022-12-06T10:11:37.150Z,20.20
2022-12-06T10:13:04.399Z,20.33
2022-12-06T10:14:14.490Z,20.05
2022-12-06T10:15:26.447Z,21.27
2022-12-06T10:16:38.174Z,21.30
2022-12-06T10:17:55.341Z,22.13
2022-12-06T10:19:09.116Z,21.95
2022-12-06T10:20:17.124Z,23.42
2022-12-06T10:21:25.733Z,23.95
2022-12-06T10:22:35.433Z,25.48
2022-12-06T10:23:51.772Z,25.92
2022-12-06T10:25:02.739Z,28.30
2022-12-06T10:26:14.543Z,32.00
2022-12-06T10:27:21.916Z,32.42
2022-12-06T10:28:32.503Z,34.35
2022-12-06T10:29:43.819Z,34.97
2022-12-06T10:30:54.125Z,37.47
2022-12-06T10:31:59.790Z,39.80
2022-12-06T10:33:10.193Z,41.30
2022-12-06T10:34:21.880Z,45.05
2022-12-06T10:35:41.939Z,42.83
2022-12-06T10:36:52.799Z,46.53
2022-12-06T10:38:03.002Z,46.08
2022-12-06T10:39:11.308Z,49.22
2022-12-06T10:40:18.063Z,49.95
2022-12-06T10:41:27.275Z,51.67
2022-12-06T10:42:33.960Z,47.10
2022-12-06T10:43:43.783Z,49.42
2022-12-06T10:44:50.483Z,53.03
2022-12-06T10:46:23.477Z,51.53
2022-12-06T10:47:28.721Z,50.03
2022-12-06T10:48:39.157Z,52.42
2022-12-06T10:49:52.068Z,51.13
2022-12-06T10:50:59.856Z,49.33
2022-12-06T10:52:21.307Z,50.83
2022-12-06T10:53:26.484Z,47.22
2022-12-06T10:54:36.596Z,43.97
2022-12-06T10:55:46.079Z,44.90
2022-12-06T10:56:50.747Z,43.05
2022-12-06T10:57:58.218Z,42.92
2022-12-06T10:59:04.789Z,42.17
2022-12-06T11:00:16.820Z,39.38
2022-12-06T11:01:22.711Z,39.03
2022-12-06T11:02:32.683Z,33.47
2022-12-06T11:03:41.950Z,36.60
2022-12-06T11:04:52.053Z,34.78
2022-12-06T11:05:58.972Z,37.47
2022-12-06T11:07:10.001Z,35.50
2022-12-06T11:08:17.088Z,35.72
2022-12-06T11:09:25.124Z,36.15
2022-12-06T11:10:30.811Z,34.97
2022-12-06T11:11:38.518Z,34.58
2022-12-06T11:12:42.000Z,33.95
2022-12-06T11:13:48.442Z,32.53
2022-12-06T11:14:56.054Z,31.00
2022-12-06T11:16:03.076Z,32.42
2022-12-06T11:17:13.629Z,30.10
2022-12-06T11:18:19.088Z,30.40
2022-12-06T11:19:28.980Z,30.83
2022-12-06T11:20:36.596Z,30.15
2022-12-06T11:21:41.761Z,28.58
2022-12-06T11:22:52.151Z,26.33
2022-12-06T11:24:01.602Z,26.98
2022-12-06T11:25:08.273Z,24.67
2022-12-06T11:26:21.142Z,23.80
2022-12-06T11:27:32.260Z,22.55
2022-12-06T11:28:39.068Z,23.65
2022-12-06T11:29:43.222Z,23.88
2022-12-06T11:30:46.911Z,24.40
2022-12-06T11:31:52.804Z,23.27
2022-12-06T11:32:55.868Z,25.15
2022-12-06T11:34:00.085Z,23.15
2022-12-06T11:35:04.721Z,22.95
2022-12-06T11:36:09.481Z,19.83
2022-12-06T11:37:17.078Z,21.92
2022-12-06T11:38:19.794Z,20.45
2022-12-06T11:39:24.418Z,17.30
2022-12-06T11:40:29.653Z,20.63
2022-12-06T11:41:36.557Z,25.15
2022-12-06T11:42:40.601Z,23.25
2022-12-06T11:43:44.442Z,18.42
2022-12-06T11:44:53.040Z,15.85
2022-12-06T11:45:57.238Z,14.73
2022-12-06T11:47:03.237Z,17.27
2022-12-06T11:48:16.289Z,13.98
2022-12-06T11:49:23.580Z,14.05
2022-12-06T11:50:31.344Z,15.75
2022-12-06T11:51:35.221Z,25.10
2022-12-06T11:52:42.792Z,17.50
2022-12-06T11:53:56.274Z,16.05
2022-12-06T11:55:02.107Z,16.85
2022-12-06T11:56:24.262Z,16.45
2022-12-06T11:57:32.684Z,18.50
2022-12-06T11:58:40.219Z,23.45
2022-12-06T12:00:14.058Z,17.38
2022-12-06T12:01:17.794Z,15.73
2022-12-06T12:02:32.235Z,18.88
2022-12-06T12:03:37.789Z,17.60
2022-12-06T12:04:42.867Z,15.95
2022-12-06T12:05:45.663Z,18.55
2022-12-06T12:06:49.404Z,19.35
2022-12-06T12:07:56.892Z,16.40
2022-12-06T12:09:01.647Z,15.10
2022-12-06T12:10:19.294Z,18.23
2022-12-06T12:11:24.404Z,16.63
2022-12-06T12:12:49.841Z,17.17
2022-12-06T12:13:54.941Z,16.67
2022-12-06T12:14:59.882Z,14.23
2022-12-06T12:16:11.438Z,14.18
2022-12-06T12:17:18.980Z,13.65
2022-12-06T12:18:24.532Z,13.85
2022-12-06T12:19:35.841Z,11.52
2022-12-06T12:20:40.405Z,12.52
2022-12-06T12:21:45.845Z,11.43
2022-12-06T12:22:57.932Z,10.93
2022-12-06T12:24:00.566Z,11.55
2022-12-06T12:25:18.904Z,9.32
2022-12-06T12:26:25.011Z,8.77
2022-12-06T12:27:46.670Z,9.90
2022-12-06T12:39:42.828Z,9.23
2022-12-06T12:40:48.572Z,9.85
2022-12-06T12:41:52.375Z,9.55
2022-12-06T12:42:59.823Z,9.98
2022-12-06T12:44:36.956Z,9.82
2022-12-06T12:45:30.440Z,10.90
2022-12-06T12:46:36.108Z,11.10
2022-12-06T12:47:39.861Z,10.10
2022-12-06T12:48:44.782Z,9.55
2022-12-06T12:50:02.863Z,10.15
2022-12-06T12:51:07.483Z,11.00
2022-12-06T12:52:29.625Z,9.90
2022-12-06T12:53:37.473Z,10.57
2022-12-06T12:54:42.704Z,10.27
2022-12-06T12:55:47.331Z,11.02
2022-12-06T12:56:51.421Z,10.80
2022-12-06T12:57:56.854Z,9.82
2022-12-06T12:59:00.498Z,10.60
2022-12-06T13:00:05.179Z,10.95
2022-12-06T13:01:13.108Z,11.70
2022-12-06T13:02:22.118Z,11.00
2022-12-06T13:03:50.205Z,12.43
2022-12-06T13:05:05.210Z,11.90
2022-12-06T13:06:30.259Z,12.30
2022-12-06T13:07:36.636Z,11.65
2022-12-06T13:08:40.015Z,11.63
2022-12-06T13:09:49.703Z,12.55
2022-12-06T13:10:59.144Z,12.38
2022-12-06T13:12:04.579Z,12.95
2022-12-06T13:13:15.875Z,12.25
2022-12-06T13:14:21.211Z,13.20
2022-12-06T13:15:30.339Z,12.43
2022-12-06T13:16:37.029Z,14.43
2022-12-06T13:17:43.931Z,13.35
2022-12-06T13:18:48.236Z,12.23
2022-12-06T13:19:53.748Z,13.65
2022-12-06T13:21:00.554Z,15.05
2022-12-06T13:22:04.709Z,15.18
2022-12-06T13:23:12.714Z,14.30
2022-12-06T13:24:19.260Z,13.48
2022-12-06T13:25:24.663Z,13.02
2022-12-06T13:26:30.335Z,13.43
2022-12-06T13:27:36.539Z,13.68
2022-12-06T13:28:43.041Z,12.95
2022-12-06T13:29:57.197Z,13.75
2022-12-06T13:31:03.712Z,13.68
2022-12-06T13:32:09.490Z,15.18
2022-12-06T13:33:21.178Z,13.55
2022-12-06T13:34:33.386Z,13.73
2022-12-06T13:35:42.354Z,14.30
2022-12-06T13:36:45.187Z,14.75
2022-12-06T13:37:54.269Z,14.80
2022-12-06T13:38:58.212Z,15.68
2022-12-06T13:40:01.914Z,14.88
2022-12-06T13:41:08.714Z,17.10
2022-12-06T13:42:41.100Z,15.65
2022-12-06T13:43:53.755Z,13.82
2022-12-06T13:44:59.889Z,15.73
2022-12-06T13:46:22.602Z,14.80
2022-12-06T13:47:50.731Z,14.38
2022-12-06T13:48:55.653Z,14.05
2022-12-06T13:50:01.391Z,13.50
2022-12-06T13:51:07.147Z,13.00
2022-12-06T13:52:10.971Z,13.23
2022-12-06T13:53:13.690Z,12.77
2022-12-06T13:54:41.091Z,13.95
2022-12-06T13:55:59.717Z,12.90
2022-12-06T13:57:23.694Z,14.00
2022-12-06T13:58:42.084Z,14.98
2022-12-06T13:59:45.984Z,14.63
2022-12-06T14:00:49.766Z,15.38
2022-12-06T14:01:55.089Z,16.50
2022-12-06T14:02:59.573Z,15.45
2022-12-06T14:04:04.745Z,16.58
2022-12-06T14:05:42.162Z,16.80
2022-12-06T14:06:46.563Z,19.75
2022-12-06T14:07:49.264Z,17.92
2022-12-06T14:08:55.694Z,18.92
2022-12-06T14:09:58.818Z,18.50
2022-12-06T14:11:16.572Z,19.42
2022-12-06T14:12:23.626Z,18.38
2022-12-06T14:13:26.373Z,17.50
2022-12-06T14:14:30.139Z,19.40
2022-12-06T14:15:33.053Z,18.30
2022-12-06T14:16:40.234Z,19.20
2022-12-06T14:19:16.087Z,19.10
2022-12-06T14:20:21.993Z,18.90
2022-12-06T14:21:29.098Z,21.27
2022-12-06T14:22:35.013Z,19.05
2022-12-06T14:23:47.196Z,19.95
2022-12-06T14:25:00.092Z,21.00
2022-12-06T14:26:18.074Z,23.75
2022-12-06T14:27:24.413Z,20.50
2022-12-06T14:28:27.077Z,18.25
2022-12-06T14:29:31.131Z,19.17
2022-12-06T14:30:35.397Z,18.58
2022-12-06T14:31:41.048Z,19.92
2022-12-06T14:32:46.152Z,19.55
2022-12-06T14:33:50.262Z,20.80
2022-12-06T14:35:03.023Z,19.13
2022-12-06T14:36:07.425Z,24.52
2022-12-06T14:37:18.013Z,25.95